sensor_id;sensor_type;location;lat;lon;timestamp;pressure;altitude;pressure_sealevel;temperature;humidity
39455;BME280;25155;41.890;23.446;2023-04-21T00:02:23;91496.50;;;6.04;61.85
39455;BME280;25155;41.890;23.446;2023-04-21T00:04:51;91485.06;;;6.05;61.90
39455;BME280;25155;41.890;23.446;2023-04-21T00:07:22;91484.81;;;6.07;61.64
39455;BME280;25155;41.890;23.446;2023-04-21T00:09:49;91485.59;;;6.08;61.74
39455;BME280;25155;41.890;23.446;2023-04-21T00:12:16;91479.34;;;6.09;61.64
39455;BME280;25155;41.890;23.446;2023-04-21T00:14:44;91483.50;;;6.10;61.51
39455;BME280;25155;41.890;23.446;2023-04-21T00:17:11;91484.25;;;6.10;61.68
39455;BME280;25155;41.890;23.446;2023-04-21T00:19:38;91478.81;;;6.01;62.24
39455;BME280;25155;41.890;23.446;2023-04-21T00:22:05;91485.38;;;5.94;61.54
39455;BME280;25155;41.890;23.446;2023-04-21T00:24:38;91479.91;;;5.80;61.77
39455;BME280;25155;41.890;23.446;2023-04-21T00:27:05;91481.47;;;5.81;61.31
39455;BME280;25155;41.890;23.446;2023-04-21T00:29:32;91471.06;;;5.81;61.05
39455;BME280;25155;41.890;23.446;2023-04-21T00:31:59;91467.94;;;5.84;61.17
39455;BME280;25155;41.890;23.446;2023-04-21T00:34:28;91466.13;;;5.84;61.16
39455;BME280;25155;41.890;23.446;2023-04-21T00:36:55;91465.88;;;5.81;61.43
39455;BME280;25155;41.890;23.446;2023-04-21T00:39:22;91467.69;;;5.75;61.69
39455;BME280;25155;41.890;23.446;2023-04-21T00:41:51;91463.00;;;5.72;61.40
39455;BME280;25155;41.890;23.446;2023-04-21T00:44:18;91460.69;;;5.71;61.09
39455;BME280;25155;41.890;23.446;2023-04-21T00:46:45;91459.66;;;5.66;61.23
39455;BME280;25155;41.890;23.446;2023-04-21T00:49:13;91459.16;;;5.59;60.91
39455;BME280;25155;41.890;23.446;2023-04-21T00:51:40;91467.97;;;5.53;61.32
39455;BME280;25155;41.890;23.446;2023-04-21T00:54:08;91462.78;;;5.43;61.33
39455;BME280;25155;41.890;23.446;2023-04-21T00:56:37;91460.44;;;5.36;61.38
39455;BME280;25155;41.890;23.446;2023-04-21T00:59:06;91466.13;;;5.28;61.63
39455;BME280;25155;41.890;23.446;2023-04-21T01:01:33;91464.06;;;5.25;61.61
39455;BME280;25155;41.890;23.446;2023-04-21T01:04:01;91460.16;;;5.12;63.04
39455;BME280;25155;41.890;23.446;2023-04-21T01:06:30;91467.91;;;4.81;64.04
39455;BME280;25155;41.890;23.446;2023-04-21T01:08:59;91463.22;;;4.73;64.19
39455;BME280;25155;41.890;23.446;2023-04-21T01:11:26;91460.34;;;4.74;63.69
39455;BME280;25155;41.890;23.446;2023-04-21T01:13:53;91471.00;;;4.78;63.49
39455;BME280;25155;41.890;23.446;2023-04-21T01:16:22;91469.44;;;4.77;63.61
39455;BME280;25155;41.890;23.446;2023-04-21T01:18:50;91471.00;;;4.78;63.25
39455;BME280;25155;41.890;23.446;2023-04-21T01:21:18;91468.94;;;4.85;63.17
39455;BME280;25155;41.890;23.446;2023-04-21T01:23:53;91471.53;;;4.85;62.95
39455;BME280;25155;41.890;23.446;2023-04-21T01:26:20;91472.59;;;4.89;62.97
39455;BME280;25155;41.890;23.446;2023-04-21T01:28:48;91465.31;;;4.86;62.49
39455;BME280;25155;41.890;23.446;2023-04-21T01:31:15;91477.25;;;4.87;62.55
39455;BME280;25155;41.890;23.446;2023-04-21T01:33:43;91471.53;;;4.85;62.87
39455;BME280;25155;41.890;23.446;2023-04-21T01:36:11;91474.63;;;4.82;62.92
39455;BME280;25155;41.890;23.446;2023-04-21T01:38:38;91473.09;;;4.81;62.74
39455;BME280;25155;41.890;23.446;2023-04-21T01:41:08;91477.47;;;4.75;62.57
39455;BME280;25155;41.890;23.446;2023-04-21T01:43:37;91468.41;;;4.73;62.62
39455;BME280;25155;41.890;23.446;2023-04-21T01:46:05;91461.66;;;4.72;62.74
39455;BME280;25155;41.890;23.446;2023-04-21T01:48:32;91466.31;;;4.75;62.74
39455;BME280;25155;41.890;23.446;2023-04-21T01:50:59;91465.53;;;4.74;62.28
39455;BME280;25155;41.890;23.446;2023-04-21T01:53:26;91465.75;;;4.52;63.29
39455;BME280;25155;41.890;23.446;2023-04-21T01:55:53;91468.56;;;4.46;62.76
39455;BME280;25155;41.890;23.446;2023-04-21T01:58:21;91466.72;;;4.36;62.77
39455;BME280;25155;41.890;23.446;2023-04-21T02:00:48;91456.34;;;4.36;62.89
39455;BME280;25155;41.890;23.446;2023-04-21T02:03:15;91459.72;;;4.36;62.62
39455;BME280;25155;41.890;23.446;2023-04-21T02:05:42;91466.47;;;4.37;62.83
39455;BME280;25155;41.890;23.446;2023-04-21T02:08:09;91463.63;;;4.39;62.88
39455;BME280;25155;41.890;23.446;2023-04-21T02:10:36;91467.25;;;4.38;62.43
39455;BME280;25155;41.890;23.446;2023-04-21T02:13:04;91467.78;;;4.35;62.99
39455;BME280;25155;41.890;23.446;2023-04-21T02:15:32;91461.50;;;4.26;62.67
39455;BME280;25155;41.890;23.446;2023-04-21T02:17:59;91469.00;;;4.22;62.73
39455;BME280;25155;41.890;23.446;2023-04-21T02:20:26;91466.41;;;4.22;62.77
39455;BME280;25155;41.890;23.446;2023-04-21T02:22:53;91470.00;;;4.16;62.96
39455;BME280;25155;41.890;23.446;2023-04-21T02:25:20;91466.63;;;4.10;62.88
39455;BME280;25155;41.890;23.446;2023-04-21T02:27:47;91472.84;;;4.09;62.90
39455;BME280;25155;41.890;23.446;2023-04-21T02:30:14;91476.19;;;4.10;63.21
39455;BME280;25155;41.890;23.446;2023-04-21T02:32:43;91481.63;;;4.08;63.11
39455;BME280;25155;41.890;23.446;2023-04-21T02:35:10;91475.13;;;4.00;63.39
39455;BME280;25155;41.890;23.446;2023-04-21T02:37:37;91469.94;;;3.95;63.30
39455;BME280;25155;41.890;23.446;2023-04-21T02:40:05;91474.84;;;3.97;64.11
39455;BME280;25155;41.890;23.446;2023-04-21T02:42:33;91469.59;;;3.87;63.74
39455;BME280;25155;41.890;23.446;2023-04-21T02:45:00;91474.78;;;3.87;64.24
39455;BME280;25155;41.890;23.446;2023-04-21T02:47:27;91471.63;;;3.79;64.09
39455;BME280;25155;41.890;23.446;2023-04-21T02:49:55;91472.34;;;3.70;64.11
39455;BME280;25155;41.890;23.446;2023-04-21T02:52:23;91470.00;;;3.68;64.56
39455;BME280;25155;41.890;23.446;2023-04-21T02:54:51;91468.41;;;3.62;64.58
39455;BME280;25155;41.890;23.446;2023-04-21T02:57:18;91471.78;;;3.57;64.74
39455;BME280;25155;41.890;23.446;2023-04-21T02:59:45;91468.38;;;3.57;65.26
39455;BME280;25155;41.890;23.446;2023-04-21T03:02:12;91473.00;;;3.50;65.58
39455;BME280;25155;41.890;23.446;2023-04-21T03:04:39;91469.41;;;3.51;65.92
39455;BME280;25155;41.890;23.446;2023-04-21T03:07:12;91473.59;;;3.24;66.58
39455;BME280;25155;41.890;23.446;2023-04-21T03:09:40;91469.38;;;3.13;66.26
39455;BME280;25155;41.890;23.446;2023-04-21T03:12:07;91473.78;;;3.13;66.03
39455;BME280;25155;41.890;23.446;2023-04-21T03:14:34;91469.13;;;3.15;66.48
39455;BME280;25155;41.890;23.446;2023-04-21T03:17:01;91475.91;;;3.21;65.91
39455;BME280;25155;41.890;23.446;2023-04-21T03:19:28;91475.66;;;3.22;65.71
39455;BME280;25155;41.890;23.446;2023-04-21T03:21:55;91477.66;;;3.15;66.20
39455;BME280;25155;41.890;23.446;2023-04-21T03:24:26;91472.19;;;3.12;66.05
39455;BME280;25155;41.890;23.446;2023-04-21T03:26:53;91480.50;;;3.14;66.25
39455;BME280;25155;41.890;23.446;2023-04-21T03:29:22;91469.13;;;3.15;65.95
39455;BME280;25155;41.890;23.446;2023-04-21T03:31:50;91475.59;;;3.17;65.81
39455;BME280;25155;41.890;23.446;2023-04-21T03:34:17;91473.00;;;3.17;65.98
39455;BME280;25155;41.890;23.446;2023-04-21T03:36:44;91471.75;;;3.20;65.98
39455;BME280;25155;41.890;23.446;2023-04-21T03:39:12;91477.44;;;3.22;65.80
39455;BME280;25155;41.890;23.446;2023-04-21T03:41:40;91482.84;;;3.15;66.06
39455;BME280;25155;41.890;23.446;2023-04-21T03:44:08;91482.06;;;3.15;65.94
39455;BME280;25155;41.890;23.446;2023-04-21T03:46:35;91490.59;;;3.15;65.59
39455;BME280;25155;41.890;23.446;2023-04-21T03:49:02;91490.38;;;3.17;65.73
39455;BME280;25155;41.890;23.446;2023-04-21T03:51:29;91493.47;;;3.19;65.16
39455;BME280;25155;41.890;23.446;2023-04-21T03:53:57;91497.34;;;3.16;65.13
39455;BME280;25155;41.890;23.446;2023-04-21T03:56:25;91490.59;;;3.15;65.28
39455;BME280;25155;41.890;23.446;2023-04-21T03:58:53;91497.34;;;3.16;65.45
39455;BME280;25155;41.890;23.446;2023-04-21T04:01:20;91503.06;;;3.18;65.65
39455;BME280;25155;41.890;23.446;2023-04-21T04:03:47;91497.53;;;3.04;65.19
39455;BME280;25155;41.890;23.446;2023-04-21T04:06:14;91497.97;;;2.96;65.28
39455;BME280;25155;41.890;23.446;2023-04-21T04:08:41;91499.72;;;2.96;65.37
39455;BME280;25155;41.890;23.446;2023-04-21T04:11:08;91499.72;;;2.96;65.46
39455;BME280;25155;41.890;23.446;2023-04-21T04:13:36;91501.31;;;2.97;65.92
39455;BME280;25155;41.890;23.446;2023-04-21T04:16:05;91508.59;;;3.00;66.05
39455;BME280;25155;41.890;23.446;2023-04-21T04:18:32;91503.19;;;3.01;66.29
39455;BME280;25155;41.890;23.446;2023-04-21T04:21:04;91505.00;;;3.01;66.88
39455;BME280;25155;41.890;23.446;2023-04-21T04:23:31;91505.53;;;3.03;67.00
39455;BME280;25155;41.890;23.446;2023-04-21T04:25:59;91503.66;;;2.98;67.47
39455;BME280;25155;41.890;23.446;2023-04-21T04:28:30;91502.41;;;3.01;67.30
39455;BME280;25155;41.890;23.446;2023-04-21T04:30:57;91508.41;;;3.06;67.48
39455;BME280;25155;41.890;23.446;2023-04-21T04:33:26;91503.75;;;3.08;67.13
39455;BME280;25155;41.890;23.446;2023-04-21T04:35:53;91503.28;;;3.12;66.86
39455;BME280;25155;41.890;23.446;2023-04-21T04:38:20;91507.19;;;3.14;67.72
39455;BME280;25155;41.890;23.446;2023-04-21T04:40:52;91506.63;;;3.12;67.98
39455;BME280;25155;41.890;23.446;2023-04-21T04:43:20;91507.47;;;3.18;67.46
39455;BME280;25155;41.890;23.446;2023-04-21T04:45:47;91508.53;;;3.22;67.30
39455;BME280;25155;41.890;23.446;2023-04-21T04:48:14;91502.63;;;3.26;67.72
39455;BME280;25155;41.890;23.446;2023-04-21T04:50:43;91505.50;;;3.30;67.84
39455;BME280;25155;41.890;23.446;2023-04-21T04:53:10;91503.50;;;3.37;67.66
39455;BME280;25155;41.890;23.446;2023-04-21T04:55:37;91503.53;;;3.42;67.15
39455;BME280;25155;41.890;23.446;2023-04-21T04:58:04;91505.88;;;3.44;67.46
39455;BME280;25155;41.890;23.446;2023-04-21T05:00:31;91508.50;;;3.49;67.54
39455;BME280;25155;41.890;23.446;2023-04-21T05:02:58;91496.06;;;3.51;67.67
39455;BME280;25155;41.890;23.446;2023-04-21T05:05:25;91494.81;;;3.54;68.48
39455;BME280;25155;41.890;23.446;2023-04-21T05:07:54;91507.81;;;3.59;68.24
39455;BME280;25155;41.890;23.446;2023-04-21T05:10:22;91487.88;;;3.64;68.30
39455;BME280;25155;41.890;23.446;2023-04-21T05:12:49;91500.13;;;3.74;67.98
39455;BME280;25155;41.890;23.446;2023-04-21T05:15:16;91499.13;;;3.80;67.94
39455;BME280;25155;41.890;23.446;2023-04-21T05:17:44;91511.88;;;3.87;67.67
39455;BME280;25155;41.890;23.446;2023-04-21T05:20:11;91506.97;;;3.91;67.43
39455;BME280;25155;41.890;23.446;2023-04-21T05:22:38;91489.03;;;3.84;67.53
39455;BME280;25155;41.890;23.446;2023-04-21T05:25:09;91507.00;;;3.96;67.78
39455;BME280;25155;41.890;23.446;2023-04-21T05:27:37;91510.38;;;4.01;67.99
39455;BME280;25155;41.890;23.446;2023-04-21T05:30:04;91510.97;;;4.09;68.51
39455;BME280;25155;41.890;23.446;2023-04-21T05:32:32;91518.75;;;4.14;67.96
39455;BME280;25155;41.890;23.446;2023-04-21T05:34:59;91514.38;;;4.19;68.08
39455;BME280;25155;41.890;23.446;2023-04-21T05:37:26;91513.91;;;4.28;68.22
39455;BME280;25155;41.890;23.446;2023-04-21T05:39:53;91514.47;;;4.35;68.78
39455;BME280;25155;41.890;23.446;2023-04-21T05:42:21;91514.75;;;4.38;69.02
39455;BME280;25155;41.890;23.446;2023-04-21T05:44:48;91507.50;;;4.51;69.10
39455;BME280;25155;41.890;23.446;2023-04-21T05:47:15;91514.03;;;4.58;68.65
39455;BME280;25155;41.890;23.446;2023-04-21T05:49:43;91501.06;;;4.64;68.88
39455;BME280;25155;41.890;23.446;2023-04-21T05:52:15;91507.34;;;4.73;69.01
39455;BME280;25155;41.890;23.446;2023-04-21T05:54:43;91503.72;;;4.79;68.73
39455;BME280;25155;41.890;23.446;2023-04-21T05:57:10;91503.22;;;4.87;68.41
39455;BME280;25155;41.890;23.446;2023-04-21T05:59:39;91502.97;;;4.94;68.00
39455;BME280;25155;41.890;23.446;2023-04-21T06:02:06;91506.38;;;5.05;67.95
39455;BME280;25155;41.890;23.446;2023-04-21T06:04:34;91497.81;;;5.15;68.10
39455;BME280;25155;41.890;23.446;2023-04-21T06:07:04;91499.66;;;5.24;67.75
39455;BME280;25155;41.890;23.446;2023-04-21T06:09:32;91500.69;;;5.34;67.83
39455;BME280;25155;41.890;23.446;2023-04-21T06:11:59;91497.09;;;5.45;68.35
39455;BME280;25155;41.890;23.446;2023-04-21T06:14:26;91496.06;;;5.56;68.43
39455;BME280;25155;41.890;23.446;2023-04-21T06:16:55;91492.41;;;5.67;68.09
39455;BME280;25155;41.890;23.446;2023-04-21T06:19:22;91488.75;;;5.79;67.47
39455;BME280;25155;41.890;23.446;2023-04-21T06:21:49;91487.19;;;5.88;67.59
39455;BME280;25155;41.890;23.446;2023-04-21T06:24:16;91488.47;;;6.01;68.32
39455;BME280;25155;41.890;23.446;2023-04-21T06:26:49;91487.13;;;6.14;67.95
39455;BME280;25155;41.890;23.446;2023-04-21T06:29:17;91485.53;;;6.28;67.36
39455;BME280;25155;41.890;23.446;2023-04-21T06:31:44;91487.28;;;6.43;67.07
39455;BME280;25155;41.890;23.446;2023-04-21T06:34:13;91485.94;;;6.56;66.91
39455;BME280;25155;41.890;23.446;2023-04-21T06:36:40;91479.63;;;6.72;66.84
39455;BME280;25155;41.890;23.446;2023-04-21T06:39:07;91483.47;;;6.85;67.37
39455;BME280;25155;41.890;23.446;2023-04-21T06:41:34;91485.22;;;7.00;66.98
39455;BME280;25155;41.890;23.446;2023-04-21T06:44:01;91478.91;;;7.11;66.22
39455;BME280;25155;41.890;23.446;2023-04-21T06:46:28;91475.97;;;7.23;65.28
39455;BME280;25155;41.890;23.446;2023-04-21T06:48:55;91480.09;;;7.34;65.67
39455;BME280;25155;41.890;23.446;2023-04-21T06:51:24;91474.25;;;7.48;65.72
39455;BME280;25155;41.890;23.446;2023-04-21T06:53:51;91483.25;;;7.61;64.27
39455;BME280;25155;41.890;23.446;2023-04-21T06:56:18;91473.53;;;7.71;64.41
39455;BME280;25155;41.890;23.446;2023-04-21T06:58:45;91480.44;;;7.86;64.24
39455;BME280;25155;41.890;23.446;2023-04-21T07:01:12;91463.16;;;7.96;62.45
39455;BME280;25155;41.890;23.446;2023-04-21T07:03:39;91478.69;;;8.06;60.97
39455;BME280;25155;41.890;23.446;2023-04-21T07:06:07;91465.03;;;8.14;60.54
39455;BME280;25155;41.890;23.446;2023-04-21T07:08:35;91474.34;;;8.25;61.72
39455;BME280;25155;41.890;23.446;2023-04-21T07:11:02;91469.75;;;8.36;59.63
39455;BME280;25155;41.890;23.446;2023-04-21T07:13:29;91464.66;;;8.50;60.84
39455;BME280;25155;41.890;23.446;2023-04-21T07:15:57;91471.09;;;8.58;56.28
39455;BME280;25155;41.890;23.446;2023-04-21T07:18:24;91479.41;;;8.60;54.43
39455;BME280;25155;41.890;23.446;2023-04-21T07:20:51;91466.00;;;8.67;54.33
39455;BME280;25155;41.890;23.446;2023-04-21T07:23:18;91469.84;;;8.74;54.12
39455;BME280;25155;41.890;23.446;2023-04-21T07:25:47;91469.22;;;8.82;54.67
39455;BME280;25155;41.890;23.446;2023-04-21T07:28:14;91473.81;;;8.91;54.28
39455;BME280;25155;41.890;23.446;2023-04-21T07:30:41;91472.16;;;9.00;54.06
39455;BME280;25155;41.890;23.446;2023-04-21T07:33:08;91475.41;;;9.11;52.72
39455;BME280;25155;41.890;23.446;2023-04-21T07:35:35;91470.03;;;9.21;53.85
39455;BME280;25155;41.890;23.446;2023-04-21T07:38:02;91468.91;;;9.27;52.21
39455;BME280;25155;41.890;23.446;2023-04-21T07:40:29;91485.31;;;9.33;51.65
39455;BME280;25155;41.890;23.446;2023-04-21T07:42:58;91470.88;;;9.35;52.71
39455;BME280;25155;41.890;23.446;2023-04-21T07:45:25;91472.28;;;9.47;52.82
39455;BME280;25155;41.890;23.446;2023-04-21T07:47:52;91464.34;;;9.52;52.98
39455;BME280;25155;41.890;23.446;2023-04-21T07:50:19;91468.84;;;9.65;52.29
39455;BME280;25155;41.890;23.446;2023-04-21T07:52:46;91462.88;;;9.79;52.85
39455;BME280;25155;41.890;23.446;2023-04-21T07:55:13;91458.47;;;9.93;51.78
39455;BME280;25155;41.890;23.446;2023-04-21T07:57:40;91459.72;;;9.96;50.75
39455;BME280;25155;41.890;23.446;2023-04-21T08:00:10;91459.84;;;10.04;51.31
39455;BME280;25155;41.890;23.446;2023-04-21T08:02:38;91467.59;;;10.09;50.35
39455;BME280;25155;41.890;23.446;2023-04-21T08:05:05;91462.94;;;10.06;49.92
39455;BME280;25155;41.890;23.446;2023-04-21T08:07:32;91461.00;;;10.12;50.87
39455;BME280;25155;41.890;23.446;2023-04-21T08:09:59;91463.16;;;10.24;51.35
39455;BME280;25155;41.890;23.446;2023-04-21T08:12:27;91459.88;;;10.32;49.85
39455;BME280;25155;41.890;23.446;2023-04-21T08:14:54;91456.00;;;10.43;50.74
39455;BME280;25155;41.890;23.446;2023-04-21T08:17:23;91449.63;;;10.50;49.18
39455;BME280;25155;41.890;23.446;2023-04-21T08:19:51;91454.66;;;10.60;49.56
39455;BME280;25155;41.890;23.446;2023-04-21T08:22:18;91450.06;;;10.79;50.55
39455;BME280;25155;41.890;23.446;2023-04-21T08:24:45;91451.13;;;10.92;49.16
39455;BME280;25155;41.890;23.446;2023-04-21T08:27:12;91446.94;;;10.91;49.30
39455;BME280;25155;41.890;23.446;2023-04-21T08:29:40;91445.31;;;10.95;48.67
39455;BME280;25155;41.890;23.446;2023-04-21T08:32:07;91449.34;;;11.01;47.27
39455;BME280;25155;41.890;23.446;2023-04-21T08:34:35;91446.84;;;10.96;47.85
39455;BME280;25155;41.890;23.446;2023-04-21T08:37:02;91442.28;;;10.88;47.73
39455;BME280;25155;41.890;23.446;2023-04-21T08:39:29;91440.81;;;10.96;48.45
39455;BME280;25155;41.890;23.446;2023-04-21T08:41:58;91438.31;;;10.91;45.43
39455;BME280;25155;41.890;23.446;2023-04-21T08:44:26;91439.25;;;10.95;47.01
39455;BME280;25155;41.890;23.446;2023-04-21T08:46:55;91434.41;;;11.02;46.54
39455;BME280;25155;41.890;23.446;2023-04-21T08:49:23;91441.56;;;11.10;46.72
39455;BME280;25155;41.890;23.446;2023-04-21T08:51:52;91433.00;;;11.18;46.28
39455;BME280;25155;41.890;23.446;2023-04-21T08:54:21;91442.00;;;11.26;45.63
39455;BME280;25155;41.890;23.446;2023-04-21T08:56:48;91433.06;;;11.27;45.41
39455;BME280;25155;41.890;23.446;2023-04-21T08:59:15;91431.09;;;11.33;45.93
39455;BME280;25155;41.890;23.446;2023-04-21T09:02:08;91427.34;;;11.25;44.91
39455;BME280;25155;41.890;23.446;2023-04-21T09:04:40;91421.41;;;11.19;44.98
39455;BME280;25155;41.890;23.446;2023-04-21T09:07:09;91411.50;;;11.30;47.83
39455;BME280;25155;41.890;23.446;2023-04-21T09:09:54;91422.38;;;11.46;45.53
39455;BME280;25155;41.890;23.446;2023-04-21T09:12:23;91411.97;;;11.55;44.17
39455;BME280;25155;41.890;23.446;2023-04-21T09:14:51;91411.44;;;11.67;44.36
39455;BME280;25155;41.890;23.446;2023-04-21T09:17:20;91414.53;;;11.69;45.44
39455;BME280;25155;41.890;23.446;2023-04-21T09:19:47;91412.38;;;11.71;45.86
39455;BME280;25155;41.890;23.446;2023-04-21T09:22:16;91411.53;;;11.84;45.76
39455;BME280;25155;41.890;23.446;2023-04-21T09:24:45;91405.59;;;12.01;44.90
39455;BME280;25155;41.890;23.446;2023-04-21T09:27:14;91398.28;;;11.89;44.04
39455;BME280;25155;41.890;23.446;2023-04-21T09:29:45;91413.84;;;11.86;44.61
39455;BME280;25155;41.890;23.446;2023-04-21T09:32:18;91404.38;;;11.76;45.58
39455;BME280;25155;41.890;23.446;2023-04-21T09:34:46;91400.84;;;11.81;45.47
39455;BME280;25155;41.890;23.446;2023-04-21T09:37:13;91397.66;;;11.92;45.66
39455;BME280;25155;41.890;23.446;2023-04-21T09:39:44;91395.72;;;12.07;44.47
39455;BME280;25155;41.890;23.446;2023-04-21T09:42:11;91399.22;;;11.93;45.54
39455;BME280;25155;41.890;23.446;2023-04-21T09:44:38;91403.69;;;12.24;42.59
39455;BME280;25155;41.890;23.446;2023-04-21T09:47:09;91411.56;;;12.24;42.07
39455;BME280;25155;41.890;23.446;2023-04-21T09:49:37;91406.09;;;12.12;43.54
39455;BME280;25155;41.890;23.446;2023-04-21T09:52:10;91396.47;;;11.99;44.24
39455;BME280;25155;41.890;23.446;2023-04-21T09:54:44;91412.81;;;11.95;43.26
39455;BME280;25155;41.890;23.446;2023-04-21T09:57:17;91406.97;;;11.99;44.26
39455;BME280;25155;41.890;23.446;2023-04-21T09:59:50;91398.03;;;12.00;44.02
39455;BME280;25155;41.890;23.446;2023-04-21T10:02:24;91407.22;;;12.20;45.51
39455;BME280;25155;41.890;23.446;2023-04-21T10:04:51;91405.38;;;12.29;44.93
39455;BME280;25155;41.890;23.446;2023-04-21T10:07:19;91402.97;;;12.41;44.67
39455;BME280;25155;41.890;23.446;2023-04-21T10:09:50;91409.75;;;12.42;43.90
39455;BME280;25155;41.890;23.446;2023-04-21T10:12:18;91407.47;;;12.41;44.97
39455;BME280;25155;41.890;23.446;2023-04-21T10:14:45;91402.31;;;12.36;44.38
39455;BME280;25155;41.890;23.446;2023-04-21T10:17:13;91405.22;;;12.25;44.57
39455;BME280;25155;41.890;23.446;2023-04-21T10:19:48;91404.94;;;12.27;44.21
39455;BME280;25155;41.890;23.446;2023-04-21T10:22:25;91395.94;;;12.19;46.26
39455;BME280;25155;41.890;23.446;2023-04-21T10:24:56;91402.41;;;12.13;44.58
39455;BME280;25155;41.890;23.446;2023-04-21T10:27:31;91398.25;;;12.21;43.55
39455;BME280;25155;41.890;23.446;2023-04-21T10:29:59;91388.56;;;12.39;44.09
39455;BME280;25155;41.890;23.446;2023-04-21T10:32:39;91395.84;;;12.42;43.54
39455;BME280;25155;41.890;23.446;2023-04-21T10:35:10;91385.03;;;12.43;42.38
39455;BME280;25155;41.890;23.446;2023-04-21T10:37:39;91391.09;;;12.53;43.25
39455;BME280;25155;41.890;23.446;2023-04-21T10:40:32;91390.97;;;12.66;42.91
39455;BME280;25155;41.890;23.446;2023-04-21T10:43:02;91393.97;;;12.82;43.66
39455;BME280;25155;41.890;23.446;2023-04-21T10:45:29;91380.53;;;12.93;42.22
39455;BME280;25155;41.890;23.446;2023-04-21T10:47:59;91380.81;;;13.00;42.30
39455;BME280;25155;41.890;23.446;2023-04-21T10:50:29;91387.78;;;13.04;40.78
39455;BME280;25155;41.890;23.446;2023-04-21T10:53:07;91390.59;;;12.99;41.34
39455;BME280;25155;41.890;23.446;2023-04-21T10:55:37;91388.41;;;13.01;41.73
39455;BME280;25155;41.890;23.446;2023-04-21T10:58:07;91388.41;;;13.01;42.64
39455;BME280;25155;41.890;23.446;2023-04-21T11:00:35;91382.06;;;13.11;43.51
39455;BME280;25155;41.890;23.446;2023-04-21T11:03:04;91382.84;;;13.20;41.97
39455;BME280;25155;41.890;23.446;2023-04-21T11:05:36;91388.09;;;13.12;41.29
39455;BME280;25155;41.890;23.446;2023-04-21T11:08:09;91386.56;;;13.11;42.09
39455;BME280;25155;41.890;23.446;2023-04-21T11:10:48;91383.16;;;13.01;41.09
39455;BME280;25155;41.890;23.446;2023-04-21T11:13:16;91382.69;;;12.99;42.27
39455;BME280;25155;41.890;23.446;2023-04-21T11:15:55;91385.63;;;12.89;41.23
39455;BME280;25155;41.890;23.446;2023-04-21T11:18:32;91394.59;;;12.88;41.98
39455;BME280;25155;41.890;23.446;2023-04-21T11:21:06;91392.25;;;12.86;40.90
39455;BME280;25155;41.890;23.446;2023-04-21T11:23:34;91385.44;;;12.77;41.01
39455;BME280;25155;41.890;23.446;2023-04-21T11:26:02;91384.03;;;12.71;40.61
39455;BME280;25155;41.890;23.446;2023-04-21T11:28:29;91379.06;;;12.69;41.95
39455;BME280;25155;41.890;23.446;2023-04-21T11:30:56;91377.81;;;12.75;42.89
39455;BME280;25155;41.890;23.446;2023-04-21T11:33:27;91374.44;;;12.75;41.33
39455;BME280;25155;41.890;23.446;2023-04-21T11:35:55;91377.69;;;12.72;40.86
39455;BME280;25155;41.890;23.446;2023-04-21T11:38:23;91383.59;;;12.77;41.48
39455;BME280;25155;41.890;23.446;2023-04-21T11:40:50;91373.69;;;12.83;41.73
39455;BME280;25155;41.890;23.446;2023-04-21T11:43:21;91374.31;;;12.89;42.56
39455;BME280;25155;41.890;23.446;2023-04-21T11:45:48;91374.81;;;12.99;41.77
39455;BME280;25155;41.890;23.446;2023-04-21T11:48:17;91374.00;;;13.25;41.78
39455;BME280;25155;41.890;23.446;2023-04-21T11:50:47;91370.47;;;13.38;39.87
39455;BME280;25155;41.890;23.446;2023-04-21T11:53:15;91367.34;;;13.45;40.61
39455;BME280;25155;41.890;23.446;2023-04-21T11:55:42;91361.44;;;13.57;39.53
39455;BME280;25155;41.890;23.446;2023-04-21T11:58:10;91366.22;;;13.72;40.44
39455;BME280;25155;41.890;23.446;2023-04-21T12:00:44;91357.53;;;13.63;39.78
39455;BME280;25155;41.890;23.446;2023-04-21T12:03:12;91355.34;;;13.83;39.19
39455;BME280;25155;41.890;23.446;2023-04-21T12:05:39;91366.03;;;13.95;39.33
39455;BME280;25155;41.890;23.446;2023-04-21T12:08:12;91361.97;;;14.06;38.93
39455;BME280;25155;41.890;23.446;2023-04-21T12:10:43;91358.19;;;14.16;38.92
39455;BME280;25155;41.890;23.446;2023-04-21T12:13:11;91354.34;;;14.13;37.16
39455;BME280;25155;41.890;23.446;2023-04-21T12:15:38;91347.22;;;14.05;37.75
39455;BME280;25155;41.890;23.446;2023-04-21T12:18:11;91343.66;;;14.01;36.77
39455;BME280;25155;41.890;23.446;2023-04-21T12:20:47;91343.47;;;14.15;38.96
39455;BME280;25155;41.890;23.446;2023-04-21T12:23:15;91342.16;;;14.30;38.62
39455;BME280;25155;41.890;23.446;2023-04-21T12:25:42;91336.59;;;14.31;36.36
39455;BME280;25155;41.890;23.446;2023-04-21T12:28:10;91326.81;;;14.32;36.87
39455;BME280;25155;41.890;23.446;2023-04-21T12:30:37;91334.56;;;14.28;35.85
39455;BME280;25155;41.890;23.446;2023-04-21T12:33:04;91330.06;;;14.29;34.45
39455;BME280;25155;41.890;23.446;2023-04-21T12:35:33;91325.09;;;14.36;34.50
39455;BME280;25155;41.890;23.446;2023-04-21T12:38:00;91332.66;;;14.38;34.83
39455;BME280;25155;41.890;23.446;2023-04-21T12:40:27;91334.41;;;14.33;34.68
39455;BME280;25155;41.890;23.446;2023-04-21T12:42:54;91329.19;;;14.16;35.49
39455;BME280;25155;41.890;23.446;2023-04-21T12:45:21;91328.34;;;14.03;35.92
39455;BME280;25155;41.890;23.446;2023-04-21T12:47:48;91320.78;;;13.93;36.51
39455;BME280;25155;41.890;23.446;2023-04-21T12:50:15;91326.03;;;13.93;36.73
39455;BME280;25155;41.890;23.446;2023-04-21T12:52:44;91325.91;;;13.89;36.20
39455;BME280;25155;41.890;23.446;2023-04-21T12:55:11;91328.72;;;13.75;36.32
39455;BME280;25155;41.890;23.446;2023-04-21T12:57:39;91326.09;;;13.75;35.88
39455;BME280;25155;41.890;23.446;2023-04-21T13:00:07;91322.69;;;13.75;36.23
39455;BME280;25155;41.890;23.446;2023-04-21T13:02:36;91312.47;;;13.73;36.01